ADDS METAR Data INFO
IDs: Format: Raw Decoded Include TAF

Data at: 0903 UTC 20 Oct 2017

KJFZ 200855Z AUTO 00000KT 10SM CLR 11/M13 A3032 RMK AO2 T01101129
KJFZ 200835Z AUTO 00000KT 10SM CLR 11/M13 A3031 RMK AO2 T01071128
KJFZ 200815Z AUTO 00000KT 10SM CLR 11/M13 A3032 RMK AO2 T01111132
KJFZ 200755Z AUTO 00000KT 10SM CLR 12/M13 A3032 RMK AO2 T01161134
KJFZ 200735Z AUTO 00000KT 10SM CLR 11/M13 A3032 RMK AO2 T01101130
KJFZ 200715Z AUTO 00000KT 10SM CLR 11/M12 A3032 RMK AO2 T01091124
KJFZ 200655Z AUTO 00000KT 10SM CLR 11/M13 A3032 RMK AO2 T01081128
KJFZ 200635Z AUTO 00000KT 10SM CLR 11/M12 A3032 RMK AO2 T01101124
KJFZ 200615Z AUTO 00000KT 10SM CLR 11/M13 A3032 RMK AO2 T01121131
KJFZ 200555Z AUTO 00000KT 10SM CLR 11/M13 A3032 RMK AO2 T01081127 10163 20107
KJFZ 200535Z AUTO 00000KT 10SM CLR 12/M14 A3032 RMK AO2 T01201139
KJFZ 200515Z AUTO 00000KT 10SM CLR 12/M14 A3032 RMK AO2 T01201142
KJFZ 200455Z AUTO 00000KT 10SM CLR 13/M14 A3032 RMK AO2 T01251144
KJFZ 200435Z AUTO 00000KT 10SM CLR 12/M14 A3032 RMK AO2 T01231145
KJFZ 200415Z AUTO 00000KT 10SM CLR 13/M15 A3032 RMK AO2 T01271152
KJFZ 200355Z AUTO 00000KT 10SM CLR 13/M16 A3032 RMK AO2 T01321164
KJFZ 200335Z AUTO 26004KT 10SM CLR 13/M17 A3032 RMK AO2 T01291172
KJFZ 200315Z AUTO 00000KT 10SM CLR 13/M18 A3032 RMK AO2 T01321183
KJFZ 200255Z AUTO 20003KT 10SM CLR 14/M18 A3031 RMK AO2 T01391182
KJFZ 200235Z AUTO 00000KT 10SM CLR 14/M19 A3031 RMK AO2 T01401188
KJFZ 200215Z AUTO 23003KT 10SM CLR 15/M20 A3031 RMK AO2 T01461196
KJFZ 200155Z AUTO 25004KT 10SM CLR 14/M19 A3031 RMK AO2 T01441189
KJFZ 200135Z AUTO 21004KT 10SM CLR 15/M21 A3030 RMK AO2 T01501213
KJFZ 200115Z AUTO 24003KT 10SM CLR 15/M24 A3030 RMK AO2 T01521236
KJFZ 200055Z AUTO 24003KT 10SM CLR 15/M25 A3030 RMK AO2 T01531250
KJFZ 200035Z AUTO 00000KT 10SM CLR 15/M25 A3030 RMK AO2 T01531248
KJFZ 200015Z AUTO 20003KT 10SM CLR 16/M26 A3030 RMK AO2 T01571262
KJFZ 192355Z AUTO 24003KT 10SM CLR 16/M28 A3030 RMK AO2 T01641276
KJFZ 192335Z AUTO 25005KT 10SM CLR 17/M29 A3029 RMK AO2 T01651288
KJFZ 192315Z AUTO 26005KT 10SM CLR 17/M29 A3029 RMK AO2 T01681286
KJFZ 192255Z AUTO 25004KT 10SM CLR 17/M31 A3028 RMK AO2 T01701314
KJFZ 192235Z AUTO 25004KT 10SM CLR 17/M31 A3028 RMK AO2 T01741312
KJFZ 192215Z AUTO 26004KT 10SM CLR 18/M32 A3028 RMK AO2 T01841325
KJFZ 192155Z AUTO 27005KT 10SM CLR 19/M33 A3028 RMK AO2 T01881328
KJFZ 192135Z AUTO 28006KT 10SM CLR 19/M38 A3028 RMK AO2 T01921384
KJFZ 192115Z AUTO 27004KT 10SM CLR 20/M38 A3028 RMK AO2 T01951384
KJFZ 192055Z AUTO 27004KT 10SM CLR 20/M40 A3028 RMK AO2 T01981405
KJFZ 192035Z AUTO 27004KT 10SM CLR 20/M38 A3028 RMK AO2 T02001378
KJFZ 192015Z AUTO 31004KT 10SM CLR A3029 RMK AO2
KJFZ 191955Z AUTO 26004KT 10SM CLR A3029 RMK AO2
KJFZ 191935Z AUTO 27006KT 10SM CLR 20/M39 A3029 RMK AO2 T01991393
KJFZ 191915Z AUTO 26004KT 10SM CLR 19/M29 A3030 RMK AO2 T01921294
KJFZ 191855Z AUTO 00000KT 10SM CLR 19/M25 A3030 RMK AO2 T01931247
KJFZ 191835Z AUTO 23003KT 10SM CLR 19/M21 A3031 RMK AO2 T01901210
KJFZ 191815Z AUTO 22003KT 10SM CLR 19/M20 A3032 RMK AO2 T01891204
KJFZ 191755Z AUTO 22003KT 10SM CLR 18/M20 A3033 RMK AO2 T01831197 10186 20078
KJFZ 191735Z AUTO 00000KT 10SM CLR 18/M18 A3034 RMK AO2 T01761179
KJFZ 191715Z AUTO 25006KT 10SM CLR 17/M10 A3034 RMK AO2 T01721098
KJFZ 191655Z AUTO 00000KT 10SM CLR 17/M15 A3035 RMK AO2 T01681154
KJFZ 191635Z AUTO 26004KT 10SM CLR 16/M15 A3036 RMK AO2 T01631146
KJFZ 191615Z AUTO 30003KT 10SM CLR 16/M13 A3037 RMK AO2 T01611132
KJFZ 191555Z AUTO 00000KT 10SM CLR 15/M01 A3037 RMK AO2 T01541008
KJFZ 191535Z AUTO 30003KT 10SM CLR 15/05 A3037 RMK AO2 T01450049
KJFZ 191515Z AUTO 31003KT 10SM CLR 14/05 A3037 RMK AO2 T01380050
KJFZ 191455Z AUTO 28003KT 10SM CLR 13/04 A3037 RMK AO2 T01340036
KJFZ 191435Z AUTO 23003KT 10SM CLR 13/M08 A3037 RMK AO2 T01341081
KJFZ 191415Z AUTO 00000KT 10SM CLR 12/04 A3037 RMK AO2 T01230042
KJFZ 191355Z AUTO 00000KT 10SM CLR 12/04 A3036 RMK AO2 T01200043
KJFZ 191335Z AUTO 00000KT 10SM CLR 10/05 A3036 RMK AO2 T01030045
KJFZ 191315Z AUTO 16003KT 10SM CLR 09/05 A3035 RMK AO2 T00930046
KJFZ 191255Z AUTO 00000KT 10SM CLR 09/04 A3035 RMK AO2 T00940040
KJFZ 191235Z AUTO 00000KT 10SM CLR 08/04 A3035 RMK AO2 T00820035
KJFZ 191215Z AUTO 00000KT 10SM CLR 08/03 A3034 RMK AO2 T00790028
KJFZ 191155Z AUTO 15004KT 10SM CLR 08/03 A3033 RMK AO2 T00810028 10110 20067
KJFZ 191135Z AUTO 15003KT 10SM CLR 07/03 A3033 RMK AO2 T00670027
KJFZ 191115Z AUTO 00000KT 10SM CLR 09/02 A3033 RMK AO2 T00850020
KJFZ 191055Z AUTO 00000KT 10SM CLR 09/03 A3032 RMK AO2 T00920025
KJFZ 191035Z AUTO 00000KT 10SM CLR 09/03 A3031 RMK AO2 T00900028
KJFZ 191015Z AUTO 15003KT 10SM CLR 08/03 A3030 RMK AO2 T00820030
KJFZ 190955Z AUTO 15003KT 10SM CLR 08/03 A3030 RMK AO2 T00760032
KJFZ 190935Z AUTO 14004KT 10SM CLR 08/04 A3030 RMK AO2 T00770035
KJFZ 190915Z AUTO 16004KT 10SM CLR 08/04 A3030 RMK AO2 T00750036
KJFZ 190855Z AUTO 16003KT 10SM CLR 08/03 A3030 RMK AO2 T00810032
KJFZ 190835Z AUTO 00000KT 10SM CLR 08/03 A3030 RMK AO2 T00840032
KJFZ 190815Z AUTO 00000KT 10SM CLR 09/03 A3029 RMK AO2 T00860030
KJFZ 190755Z AUTO 00000KT 10SM CLR 09/M09 A3029 RMK AO2 T00881094
KJFZ 190735Z AUTO 00000KT 10SM CLR 10/04 A3029 RMK AO2 T00950036
KJFZ 190715Z AUTO 00000KT 10SM CLR 10/04 A3029 RMK AO2 T00970037
KJFZ 190655Z AUTO 00000KT 10SM CLR 10/04 A3029 RMK AO2 T00950039
KJFZ 190635Z AUTO 00000KT 10SM CLR 10/04 A3029 RMK AO2 T01030036
KJFZ 190615Z AUTO 00000KT 10SM CLR 10/03 A3029 RMK AO2 T01020034
KJFZ 190555Z AUTO 00000KT 10SM CLR 11/M11 A3029 RMK AO2 T01051107 10159 20096 402070050
KJFZ 190535Z AUTO 00000KT 10SM CLR 11/M09 A3030 RMK AO2 T01101095
KJFZ 190515Z AUTO 00000KT 10SM CLR 10/M11 A3030 RMK AO2 T00981106
KJFZ 190455Z AUTO 13003KT 10SM CLR 12/M14 A3030 RMK AO2 T01241138
KJFZ 190435Z AUTO 14003KT 10SM CLR 12/M13 A3030 RMK AO2 T01201128
KJFZ 190415Z AUTO 00000KT 10SM CLR 13/M12 A3031 RMK AO2 T01261125
KJFZ 190355Z AUTO 14003KT 10SM CLR 12/M12 A3031 RMK AO2 T01191118
KJFZ 190335Z AUTO 14004KT 10SM CLR 13/M14 A3032 RMK AO2 T01291143
KJFZ 190315Z AUTO 00000KT 10SM CLR 13/M14 A3032 RMK AO2 T01341143
KJFZ 190255Z AUTO 00000KT 10SM CLR 14/M08 A3032 RMK AO2 T01361077
KJFZ 190235Z AUTO 00000KT 10SM CLR 14/04 A3032 RMK AO2 T01370041
KJFZ 190215Z AUTO 00000KT 10SM CLR 13/05 A3032 RMK AO2 T01340047
KJFZ 190155Z AUTO 15003KT 10SM CLR 14/05 A3032 RMK AO2 T01390046
KJFZ 190135Z AUTO 17003KT 10SM CLR 15/04 A3032 RMK AO2 T01450043
KJFZ 190115Z AUTO 16003KT 10SM CLR 14/05 A3032 RMK AO2 T01430045
KJFZ 190055Z AUTO 14003KT 10SM CLR 15/M06 A3032 RMK AO2 T01481063
KJFZ 190035Z AUTO 15004KT 10SM CLR 15/M03 A3031 RMK AO2 T01451030
KJFZ 190015Z AUTO 14004KT 10SM CLR 16/M05 A3031 RMK AO2 T01551048
KJFZ 182355Z AUTO 15003KT 10SM CLR 16/M07 A3031 RMK AO2 T01591069 10207 20155
KJFZ 182335Z AUTO 00000KT 10SM CLR 16/M09 A3031 RMK AO2 T01551091
KJFZ 182315Z AUTO 00000KT 10SM CLR 17/M14 A3030 RMK AO2 T01741144
KJFZ 182300Z AUTO 25003KT 10SM CLR 17/M12 A3030 RMK AO2 T01721117
KJFZ 182235Z AUTO 25004KT 10SM CLR 18/M14 A3031 RMK AO2 T01791145
KJFZ 182215Z AUTO 00000KT 10SM CLR 19/M14 A3030 RMK AO2 T01891139
KJFZ 182155Z AUTO 00000KT 10SM CLR 19/M14 A3030 RMK AO2 T01901138
KJFZ 182135Z AUTO 00000KT 10SM CLR 20/M16 A3030 RMK AO2 T01961158
KJFZ 182115Z AUTO 00000KT 10SM CLR 20/M18 A3030 RMK AO2 T01961178